This demonstration page uses our WeatherBlox Daily Observations layout. Learn more.

36.17497, -115.13722

Hourly Observations for November 11, 2018

Temp ( °F °C ) Dew Point ( °F °C ) Humidity (%) Winds ( mph kmh ) Pressure ( in mb ) Visibility ( mi km ) Precip ( " mm )
12:53 am 00:53 Clear 53 11.7 -4 -20 9 9 N 3 6 30 1016 10 16.09344 0 0
1:53 am 01:53 Clear 51 10.6 -3 -19.4 10 10 NE 5 7 30 1016 10 16.09344 0 0
2:53 am 02:53 Clear 54 12.2 3 -16.1 12 12 N 15 24 30.03 1017 10 16.09344 0 0
3:53 am 03:53 Clear 56 13.3 8 -13.3 14 14 NW 23 37 30.06 1018 10 16.09344 0 0
4:53 am 04:53 Clear 54 12.2 10 -12.2 17 17 NW 26 43 30.09 1019 10 16.09344 0 0
5:53 am 05:53 Clear 52 11.1 10 -12.2 18 18 NNW 24 39 30.15 1021 10 16.09344 0 0
6:53 am 06:53 Sunny 52 11.1 9 -12.8 17 17 NNW 21 33 30.21 1023 10 16.09344 0 0
7:53 am 07:53 Sunny 53 11.7 7 -13.9 15 15 NNW 20 31 30.24 1024 10 16.09344 0 0
8:53 am 08:53 Sunny 54 12.2 6 -14.4 14 14 NNW 22 35 30.27 1025 10 16.09344 0 0
9:53 am 09:53 Sunny 56 13.3 7 -13.9 14 14 N 22 35 30.3 1026 10 16.09344 0 0
10:53 am 10:53 Sunny 57 13.9 6 -14.4 13 13 N 18 30 30.3 1026 10 16.09344 0 0
11:53 am 11:53 Sunny 58 14.4 6 -14.4 12 12 NNW 15 24 30.27 1025 10 16.09344 0 0
12:53 pm 12:53 Sunny 60 15.6 6 -14.4 11 11 NNW 16 26 30.24 1024 10 16.09344 0 0
1:53 pm 13:53 Sunny 60 15.6 5 -15 11 11 N 14 22 30.24 1024 10 16.09344 0 0
2:53 pm 14:53 Sunny 61 16.1 3 -16.1 10 10 NNW 17 28 30.24 1024 10 16.09344 0 0
3:53 pm 15:53 Sunny 60 15.6 4 -15.6 10 10 N 16 26 30.24 1024 10 16.09344 0 0
4:53 pm 16:53 Clear 57 13.9 4 -15.6 11 11 NNE 5 7 30.24 1024 10 16.09344 0 0
5:53 pm 17:53 Clear 55 12.8 5 -15 13 13 NNW 8 13 30.27 1025 10 16.09344 0 0
6:53 pm 18:53 Clear 53 11.7 4 -15.6 13 13 NNW 8 13 30.27 1025 10 16.09344 0 0
7:53 pm 19:53 Clear 51 10.6 4 -15.6 14 14 N 10 17 30.3 1026 10 16.09344 0 0
8:53 pm 20:53 Clear 50 10 7 -13.9 17 17 NNE 7 11 30.33 1027 10 16.09344 0 0
9:53 pm 21:53 Clear 47 8.3 6 -14.4 19 19 NW 6 9 30.33 1027 10 16.09344 0 0
10:53 pm 22:53 Clear 45 7.2 7 -13.9 21 21 W 3 6 30.36 1028 10 16.09344 0 0
11:53 pm 23:53 Clear 44 6.7 7 -13.9 22 22 WNW 6 9 30.36 1028 10 16.09344 0 0

Powered by AerisWeather